McComb, MS

5:59 PM CST on February 08, 2016 (GMT -0600)
McComb-Pike County-Lewis | | Change Station
CLOSE
Current Station
Airport
Location: McComb,
Elevation: 410 ft
Nearby Weather Stations
Active Advisory: Wind Advisory

Elev 410 ft 31.18 °N, 90.47 °W | Updated 6 minutes ago

Partly Cloudy
Partly Cloudy
48 °F
Feels Like 48 °F
N
14
Wind Variable Wind from NW

Today
High -- | Low -- °F
--% Chance of Precip.
Yesterday
High -- | Low -- °F
Precip. -- in
Pressure 30.04 in
Visibility 10.0 miles
Clouds Few 9000 ft
Dew Point 18 °F
Humidity 30%
Rainfall 0.00 in
Snow Depth Not available.
6:49 AM 5:43 PM
New Moon, 0% visible
METAR KMCB 082353Z AUTO 32012KT 10SM FEW090 09/M08 A3004 RMK AO2 PK WND 32033/2257 SLP170 T00891078 10128 20089 51012
Pressure 30.04 in
Visibility 10.0 miles
Clouds Few 9000 ft
Dew Point 18 °F
Humidity 30%
Rainfall 0.00 in
Snow Depth Not available.
6:49 AM 5:43 PM
New Moon, 0% visible
METAR KMCB 082353Z AUTO 32012KT 10SM FEW090 09/M08 A3004 RMK AO2 PK WND 32033/2257 SLP170 T00891078 10128 20089 51012

10-Day Weather Forecast

Almanac

Astronomy

Feb. 08, 2016 Rise Set
Actual Time
Civil Twilight
Nautical Twilight
Astronomical Twilight
Moon
Length of Visible Light
Length of Day
Tomorrow will be .
, % of the Moon is Illuminated

Today's Extremes

State Highs State Lows

Community

WunderPhotos

Upload Photos

1,891,527 photos uploaded!

WunderBlog® & News

Nearby

Air Quality

  Air Quality AQ Index Pollutant
Not available.

Snow Depth

Station Depth Elevation

Earthquake Activity

City Distance Mag. Time & Date
Minimum magnitude displayed is 2.5.

Coastal Water Temperatures

Place Temperature

Stations

Nearby Weather Stations

Station Location Temp. Windchill Dew Point Humidity Wind Precip. Elev Updated Type
                   

Watches & Warnings

Wind Advisory
Issued: 3:30 PM CST Feb. 8, 2016 – National Weather Service

... Wind Advisory remains in effect until 6 PM CST this evening...

* winds... near 25 mph with frequent gusts of 30 to 35 mph.

* Impacts... windy conditions will lead to difficult driving
conditions especially along elevated roadways along with
east/west highways and interstates.

Precautionary/preparedness actions...

A Wind Advisory means that winds of 26 to 39 mph are expected.
Winds this strong can make driving difficult... especially for
high profile vehicles. Use extra caution.